sensor_id;sensor_type;location;lat;lon;timestamp;P1;durP1;ratioP1;P2;durP2;ratioP2
37355;SDS011;48747;50.250;18.848;2023-11-21T00:01:55;22.95;;;12.40;;
37355;SDS011;48747;50.250;18.848;2023-11-21T00:04:02;18.65;;;10.35;;
37355;SDS011;48747;50.250;18.848;2023-11-21T00:06:04;18.07;;;10.38;;
37355;SDS011;48747;50.250;18.848;2023-11-21T00:08:12;19.90;;;10.43;;
37355;SDS011;48747;50.250;18.848;2023-11-21T00:10:17;19.65;;;11.00;;
37355;SDS011;48747;50.250;18.848;2023-11-21T00:12:23;20.37;;;11.68;;
37355;SDS011;48747;50.250;18.848;2023-11-21T00:14:37;18.77;;;10.08;;
37355;SDS011;48747;50.250;18.848;2023-11-21T00:18:49;22.00;;;13.83;;
37355;SDS011;48747;50.250;18.848;2023-11-21T00:20:51;27.32;;;18.10;;
37355;SDS011;48747;50.250;18.848;2023-11-21T00:22:58;30.35;;;19.00;;
37355;SDS011;48747;50.250;18.848;2023-11-21T00:25:02;33.23;;;20.25;;
37355;SDS011;48747;50.250;18.848;2023-11-21T00:27:09;30.68;;;20.75;;
37355;SDS011;48747;50.250;18.848;2023-11-21T00:29:22;32.90;;;20.10;;
37355;SDS011;48747;50.250;18.848;2023-11-21T00:31:30;34.70;;;21.85;;
37355;SDS011;48747;50.250;18.848;2023-11-21T00:33:33;32.67;;;20.32;;
37355;SDS011;48747;50.250;18.848;2023-11-21T00:35:45;37.13;;;22.40;;
37355;SDS011;48747;50.250;18.848;2023-11-21T00:37:47;30.82;;;20.75;;
37355;SDS011;48747;50.250;18.848;2023-11-21T00:40:05;33.40;;;22.60;;
37355;SDS011;48747;50.250;18.848;2023-11-21T00:42:06;38.13;;;24.35;;
37355;SDS011;48747;50.250;18.848;2023-11-21T00:44:06;37.05;;;22.95;;
37355;SDS011;48747;50.250;18.848;2023-11-21T00:46:15;33.98;;;21.20;;
37355;SDS011;48747;50.250;18.848;2023-11-21T00:48:22;31.65;;;19.12;;
37355;SDS011;48747;50.250;18.848;2023-11-21T00:50:24;31.52;;;18.80;;
37355;SDS011;48747;50.250;18.848;2023-11-21T00:54:35;23.75;;;15.15;;
37355;SDS011;48747;50.250;18.848;2023-11-21T00:56:45;22.65;;;14.35;;
37355;SDS011;48747;50.250;18.848;2023-11-21T00:58:51;22.02;;;13.15;;
37355;SDS011;48747;50.250;18.848;2023-11-21T01:00:56;20.92;;;14.18;;
37355;SDS011;48747;50.250;18.848;2023-11-21T01:03:05;23.25;;;13.03;;
37355;SDS011;48747;50.250;18.848;2023-11-21T01:07:21;15.85;;;9.95;;
37355;SDS011;48747;50.250;18.848;2023-11-21T01:09:26;18.05;;;10.35;;
37355;SDS011;48747;50.250;18.848;2023-11-21T01:11:33;15.32;;;8.78;;
37355;SDS011;48747;50.250;18.848;2023-11-21T01:13:40;13.35;;;8.60;;
37355;SDS011;48747;50.250;18.848;2023-11-21T01:15:52;15.00;;;8.48;;
37355;SDS011;48747;50.250;18.848;2023-11-21T01:17:57;16.70;;;8.80;;
37355;SDS011;48747;50.250;18.848;2023-11-21T01:22:13;18.73;;;9.55;;
37355;SDS011;48747;50.250;18.848;2023-11-21T01:24:17;19.20;;;10.18;;
37355;SDS011;48747;50.250;18.848;2023-11-21T01:26:26;17.07;;;10.63;;
37355;SDS011;48747;50.250;18.848;2023-11-21T01:28:28;17.15;;;9.88;;
37355;SDS011;48747;50.250;18.848;2023-11-21T01:30:39;15.63;;;9.88;;
37355;SDS011;48747;50.250;18.848;2023-11-21T01:32:45;17.82;;;10.58;;
37355;SDS011;48747;50.250;18.848;2023-11-21T01:34:50;20.00;;;11.12;;
37355;SDS011;48747;50.250;18.848;2023-11-21T01:36:58;19.32;;;10.60;;
37355;SDS011;48747;50.250;18.848;2023-11-21T01:39:02;14.53;;;9.80;;
37355;SDS011;48747;50.250;18.848;2023-11-21T01:41:07;18.32;;;10.60;;
37355;SDS011;48747;50.250;18.848;2023-11-21T01:43:15;17.23;;;9.98;;
37355;SDS011;48747;50.250;18.848;2023-11-21T01:45:19;16.55;;;10.53;;
37355;SDS011;48747;50.250;18.848;2023-11-21T01:47:32;14.38;;;8.23;;
37355;SDS011;48747;50.250;18.848;2023-11-21T01:49:46;12.88;;;8.45;;
37355;SDS011;48747;50.250;18.848;2023-11-21T01:51:44;15.25;;;8.98;;
37355;SDS011;48747;50.250;18.848;2023-11-21T01:53:50;16.20;;;8.58;;
37355;SDS011;48747;50.250;18.848;2023-11-21T01:56:00;14.15;;;8.40;;
37355;SDS011;48747;50.250;18.848;2023-11-21T01:58:01;17.42;;;7.80;;
37355;SDS011;48747;50.250;18.848;2023-11-21T02:00:06;12.28;;;7.75;;
37355;SDS011;48747;50.250;18.848;2023-11-21T02:02:21;13.78;;;7.60;;
37355;SDS011;48747;50.250;18.848;2023-11-21T02:04:25;14.47;;;8.05;;
37355;SDS011;48747;50.250;18.848;2023-11-21T02:06:36;11.15;;;8.30;;
37355;SDS011;48747;50.250;18.848;2023-11-21T02:08:42;12.15;;;8.03;;
37355;SDS011;48747;50.250;18.848;2023-11-21T02:10:45;15.03;;;8.30;;
37355;SDS011;48747;50.250;18.848;2023-11-21T02:13:04;14.00;;;7.62;;
37355;SDS011;48747;50.250;18.848;2023-11-21T02:17:08;16.30;;;8.08;;
37355;SDS011;48747;50.250;18.848;2023-11-21T02:19:18;14.65;;;8.00;;
37355;SDS011;48747;50.250;18.848;2023-11-21T02:23:31;17.10;;;9.23;;
37355;SDS011;48747;50.250;18.848;2023-11-21T02:25:36;17.40;;;10.48;;
37355;SDS011;48747;50.250;18.848;2023-11-21T02:27:41;17.05;;;10.08;;
37355;SDS011;48747;50.250;18.848;2023-11-21T02:29:47;14.50;;;9.83;;
37355;SDS011;48747;50.250;18.848;2023-11-21T02:31:52;18.10;;;10.32;;
37355;SDS011;48747;50.250;18.848;2023-11-21T02:33:58;14.70;;;10.13;;
37355;SDS011;48747;50.250;18.848;2023-11-21T02:36:04;16.85;;;11.25;;
37355;SDS011;48747;50.250;18.848;2023-11-21T02:38:12;20.08;;;10.58;;
37355;SDS011;48747;50.250;18.848;2023-11-21T02:40:16;19.62;;;10.98;;
37355;SDS011;48747;50.250;18.848;2023-11-21T02:42:21;19.02;;;11.12;;
37355;SDS011;48747;50.250;18.848;2023-11-21T02:44:33;16.23;;;9.80;;
37355;SDS011;48747;50.250;18.848;2023-11-21T02:46:30;16.77;;;10.08;;
37355;SDS011;48747;50.250;18.848;2023-11-21T02:48:35;22.15;;;10.20;;
37355;SDS011;48747;50.250;18.848;2023-11-21T02:50:40;17.27;;;10.00;;
37355;SDS011;48747;50.250;18.848;2023-11-21T02:52:46;16.60;;;9.83;;
37355;SDS011;48747;50.250;18.848;2023-11-21T02:54:53;17.02;;;9.18;;
37355;SDS011;48747;50.250;18.848;2023-11-21T02:56:58;19.12;;;10.50;;
37355;SDS011;48747;50.250;18.848;2023-11-21T02:59:08;15.53;;;9.38;;
37355;SDS011;48747;50.250;18.848;2023-11-21T03:01:13;17.52;;;9.68;;
37355;SDS011;48747;50.250;18.848;2023-11-21T03:03:18;16.10;;;9.10;;
37355;SDS011;48747;50.250;18.848;2023-11-21T03:05:24;15.00;;;8.33;;
37355;SDS011;48747;50.250;18.848;2023-11-21T03:07:30;13.83;;;8.25;;
37355;SDS011;48747;50.250;18.848;2023-11-21T03:09:50;16.12;;;8.18;;
37355;SDS011;48747;50.250;18.848;2023-11-21T03:11:43;21.97;;;9.23;;
37355;SDS011;48747;50.250;18.848;2023-11-21T03:13:46;15.30;;;7.15;;
37355;SDS011;48747;50.250;18.848;2023-11-21T03:15:54;11.40;;;6.42;;
37355;SDS011;48747;50.250;18.848;2023-11-21T03:17:58;12.50;;;7.05;;
37355;SDS011;48747;50.250;18.848;2023-11-21T03:20:06;19.45;;;7.60;;
37355;SDS011;48747;50.250;18.848;2023-11-21T03:22:11;12.28;;;6.83;;
37355;SDS011;48747;50.250;18.848;2023-11-21T03:24:14;15.38;;;6.60;;
37355;SDS011;48747;50.250;18.848;2023-11-21T03:26:21;14.93;;;7.65;;
37355;SDS011;48747;50.250;18.848;2023-11-21T03:28:24;12.93;;;6.70;;
37355;SDS011;48747;50.250;18.848;2023-11-21T03:30:32;12.25;;;6.55;;
37355;SDS011;48747;50.250;18.848;2023-11-21T03:32:37;15.88;;;6.85;;
37355;SDS011;48747;50.250;18.848;2023-11-21T03:34:57;14.83;;;7.85;;
37355;SDS011;48747;50.250;18.848;2023-11-21T03:37:00;13.45;;;8.20;;
37355;SDS011;48747;50.250;18.848;2023-11-21T03:43:24;22.35;;;12.58;;
37355;SDS011;48747;50.250;18.848;2023-11-21T03:45:28;23.98;;;13.85;;
37355;SDS011;48747;50.250;18.848;2023-11-21T03:47:33;20.88;;;11.12;;
37355;SDS011;48747;50.250;18.848;2023-11-21T03:49:39;19.92;;;9.55;;
37355;SDS011;48747;50.250;18.848;2023-11-21T03:51:44;19.45;;;10.65;;
37355;SDS011;48747;50.250;18.848;2023-11-21T03:53:49;21.27;;;11.45;;
37355;SDS011;48747;50.250;18.848;2023-11-21T03:58:01;16.87;;;10.70;;
37355;SDS011;48747;50.250;18.848;2023-11-21T04:00:10;23.77;;;10.82;;
37355;SDS011;48747;50.250;18.848;2023-11-21T04:02:15;22.27;;;11.50;;
37355;SDS011;48747;50.250;18.848;2023-11-21T04:04:21;19.95;;;12.23;;
37355;SDS011;48747;50.250;18.848;2023-11-21T04:06:33;18.77;;;11.57;;
37355;SDS011;48747;50.250;18.848;2023-11-21T04:08:37;22.77;;;13.48;;
37355;SDS011;48747;50.250;18.848;2023-11-21T04:10:44;23.65;;;12.58;;
37355;SDS011;48747;50.250;18.848;2023-11-21T04:12:50;19.67;;;11.43;;
37355;SDS011;48747;50.250;18.848;2023-11-21T04:15:00;19.57;;;11.75;;
37355;SDS011;48747;50.250;18.848;2023-11-21T04:19:18;24.45;;;14.05;;
37355;SDS011;48747;50.250;18.848;2023-11-21T04:21:23;17.45;;;12.30;;
37355;SDS011;48747;50.250;18.848;2023-11-21T04:23:30;26.37;;;14.35;;
37355;SDS011;48747;50.250;18.848;2023-11-21T04:27:44;23.02;;;12.98;;
37355;SDS011;48747;50.250;18.848;2023-11-21T04:29:51;24.20;;;13.00;;
37355;SDS011;48747;50.250;18.848;2023-11-21T04:32:06;30.97;;;19.42;;
37355;SDS011;48747;50.250;18.848;2023-11-21T04:33:57;35.63;;;19.55;;
37355;SDS011;48747;50.250;18.848;2023-11-21T04:36:01;24.02;;;13.28;;
37355;SDS011;48747;50.250;18.848;2023-11-21T04:40:17;19.48;;;12.37;;
37355;SDS011;48747;50.250;18.848;2023-11-21T04:42:23;22.98;;;11.95;;
37355;SDS011;48747;50.250;18.848;2023-11-21T04:44:29;21.73;;;12.78;;
37355;SDS011;48747;50.250;18.848;2023-11-21T04:46:33;25.65;;;14.53;;
37355;SDS011;48747;50.250;18.848;2023-11-21T04:48:40;23.67;;;14.90;;
37355;SDS011;48747;50.250;18.848;2023-11-21T04:50:50;24.77;;;13.35;;
37355;SDS011;48747;50.250;18.848;2023-11-21T04:52:55;31.15;;;17.95;;
37355;SDS011;48747;50.250;18.848;2023-11-21T04:55:01;29.95;;;16.25;;
37355;SDS011;48747;50.250;18.848;2023-11-21T04:57:13;33.63;;;17.98;;
37355;SDS011;48747;50.250;18.848;2023-11-21T04:59:16;30.88;;;17.80;;
37355;SDS011;48747;50.250;18.848;2023-11-21T05:01:22;29.07;;;18.55;;
37355;SDS011;48747;50.250;18.848;2023-11-21T05:03:26;30.97;;;17.95;;
37355;SDS011;48747;50.250;18.848;2023-11-21T05:05:31;31.55;;;17.70;;
37355;SDS011;48747;50.250;18.848;2023-11-21T05:07:40;34.10;;;19.20;;
37355;SDS011;48747;50.250;18.848;2023-11-21T05:09:43;34.13;;;19.17;;
37355;SDS011;48747;50.250;18.848;2023-11-21T05:11:48;32.17;;;16.77;;
37355;SDS011;48747;50.250;18.848;2023-11-21T05:13:52;34.85;;;17.35;;
37355;SDS011;48747;50.250;18.848;2023-11-21T05:18:07;32.48;;;17.50;;
37355;SDS011;48747;50.250;18.848;2023-11-21T05:20:27;29.00;;;17.17;;
37355;SDS011;48747;50.250;18.848;2023-11-21T05:22:21;33.65;;;17.57;;
37355;SDS011;48747;50.250;18.848;2023-11-21T05:24:28;32.15;;;16.10;;
37355;SDS011;48747;50.250;18.848;2023-11-21T05:26:37;34.45;;;16.97;;
37355;SDS011;48747;50.250;18.848;2023-11-21T05:28:40;31.02;;;17.00;;
37355;SDS011;48747;50.250;18.848;2023-11-21T05:30:46;43.25;;;20.82;;
37355;SDS011;48747;50.250;18.848;2023-11-21T05:32:51;40.83;;;20.55;;
37355;SDS011;48747;50.250;18.848;2023-11-21T05:37:03;45.48;;;22.67;;
37355;SDS011;48747;50.250;18.848;2023-11-21T05:39:06;48.42;;;26.55;;
37355;SDS011;48747;50.250;18.848;2023-11-21T05:41:12;36.85;;;21.40;;
37355;SDS011;48747;50.250;18.848;2023-11-21T05:43:17;36.93;;;20.82;;
37355;SDS011;48747;50.250;18.848;2023-11-21T05:45:32;40.30;;;23.98;;
37355;SDS011;48747;50.250;18.848;2023-11-21T05:47:31;47.98;;;27.77;;
37355;SDS011;48747;50.250;18.848;2023-11-21T05:49:37;49.45;;;30.72;;
37355;SDS011;48747;50.250;18.848;2023-11-21T05:51:40;46.45;;;27.17;;
37355;SDS011;48747;50.250;18.848;2023-11-21T05:53:45;42.30;;;25.40;;
37355;SDS011;48747;50.250;18.848;2023-11-21T05:55:50;40.60;;;21.07;;
37355;SDS011;48747;50.250;18.848;2023-11-21T05:57:57;44.18;;;23.85;;
37355;SDS011;48747;50.250;18.848;2023-11-21T06:00:00;37.65;;;21.05;;
37355;SDS011;48747;50.250;18.848;2023-11-21T06:02:10;34.95;;;20.00;;
37355;SDS011;48747;50.250;18.848;2023-11-21T06:04:14;43.28;;;21.40;;
37355;SDS011;48747;50.250;18.848;2023-11-21T06:06:25;43.68;;;21.05;;
37355;SDS011;48747;50.250;18.848;2023-11-21T06:08:27;49.58;;;21.15;;
37355;SDS011;48747;50.250;18.848;2023-11-21T06:10:31;37.90;;;19.95;;
37355;SDS011;48747;50.250;18.848;2023-11-21T06:12:43;37.17;;;21.02;;
37355;SDS011;48747;50.250;18.848;2023-11-21T06:14:44;35.58;;;21.17;;
37355;SDS011;48747;50.250;18.848;2023-11-21T06:16:48;36.33;;;21.60;;
37355;SDS011;48747;50.250;18.848;2023-11-21T06:18:59;37.98;;;23.47;;
37355;SDS011;48747;50.250;18.848;2023-11-21T06:21:04;41.58;;;25.05;;
37355;SDS011;48747;50.250;18.848;2023-11-21T06:23:16;45.85;;;25.25;;
37355;SDS011;48747;50.250;18.848;2023-11-21T06:25:21;48.23;;;27.85;;
37355;SDS011;48747;50.250;18.848;2023-11-21T06:29:40;46.08;;;28.30;;
37355;SDS011;48747;50.250;18.848;2023-11-21T06:31:45;50.50;;;30.17;;
37355;SDS011;48747;50.250;18.848;2023-11-21T06:33:51;51.02;;;32.15;;
37355;SDS011;48747;50.250;18.848;2023-11-21T06:35:55;55.05;;;33.13;;
37355;SDS011;48747;50.250;18.848;2023-11-21T06:38:09;54.93;;;31.73;;
37355;SDS011;48747;50.250;18.848;2023-11-21T06:40:16;50.10;;;30.17;;
37355;SDS011;48747;50.250;18.848;2023-11-21T06:42:26;46.10;;;26.68;;
37355;SDS011;48747;50.250;18.848;2023-11-21T06:46:33;40.75;;;23.90;;
37355;SDS011;48747;50.250;18.848;2023-11-21T06:48:46;37.35;;;21.82;;
37355;SDS011;48747;50.250;18.848;2023-11-21T06:50:54;40.08;;;23.77;;
37355;SDS011;48747;50.250;18.848;2023-11-21T06:52:50;37.88;;;21.30;;
37355;SDS011;48747;50.250;18.848;2023-11-21T06:55:03;33.75;;;20.80;;
37355;SDS011;48747;50.250;18.848;2023-11-21T06:57:07;38.05;;;21.62;;
37355;SDS011;48747;50.250;18.848;2023-11-21T07:01:17;37.63;;;20.57;;
37355;SDS011;48747;50.250;18.848;2023-11-21T07:03:23;34.95;;;20.20;;
37355;SDS011;48747;50.250;18.848;2023-11-21T07:05:28;38.65;;;22.05;;
37355;SDS011;48747;50.250;18.848;2023-11-21T07:07:44;35.98;;;21.40;;
37355;SDS011;48747;50.250;18.848;2023-11-21T07:09:42;33.85;;;20.30;;
37355;SDS011;48747;50.250;18.848;2023-11-21T07:11:48;40.03;;;22.65;;
37355;SDS011;48747;50.250;18.848;2023-11-21T07:13:53;40.25;;;22.67;;
37355;SDS011;48747;50.250;18.848;2023-11-21T07:16:06;37.20;;;20.95;;
37355;SDS011;48747;50.250;18.848;2023-11-21T07:18:04;41.63;;;25.20;;
37355;SDS011;48747;50.250;18.848;2023-11-21T07:20:11;49.53;;;27.17;;
37355;SDS011;48747;50.250;18.848;2023-11-21T07:26:55;37.20;;;21.77;;
37355;SDS011;48747;50.250;18.848;2023-11-21T07:29:18;34.20;;;20.70;;
37355;SDS011;48747;50.250;18.848;2023-11-21T07:31:09;42.27;;;25.88;;
37355;SDS011;48747;50.250;18.848;2023-11-21T07:35:26;37.42;;;23.60;;
37355;SDS011;48747;50.250;18.848;2023-11-21T07:37:33;43.98;;;24.63;;
37355;SDS011;48747;50.250;18.848;2023-11-21T07:41:45;46.70;;;24.90;;
37355;SDS011;48747;50.250;18.848;2023-11-21T07:46:13;43.75;;;25.02;;
37355;SDS011;48747;50.250;18.848;2023-11-21T07:48:20;47.33;;;25.12;;
37355;SDS011;48747;50.250;18.848;2023-11-21T07:57:15;36.80;;;21.40;;
37355;SDS011;48747;50.250;18.848;2023-11-21T08:04:02;39.90;;;20.75;;
37355;SDS011;48747;50.250;18.848;2023-11-21T08:06:15;41.80;;;22.77;;
37355;SDS011;48747;50.250;18.848;2023-11-21T08:10:55;33.02;;;19.17;;
37355;SDS011;48747;50.250;18.848;2023-11-21T08:13:06;42.75;;;21.62;;
37355;SDS011;48747;50.250;18.848;2023-11-21T08:15:13;38.17;;;20.43;;
37355;SDS011;48747;50.250;18.848;2023-11-21T08:19:25;32.17;;;20.10;;
37355;SDS011;48747;50.250;18.848;2023-11-21T08:21:41;36.33;;;21.50;;
37355;SDS011;48747;50.250;18.848;2023-11-21T08:26:05;34.38;;;21.27;;
37355;SDS011;48747;50.250;18.848;2023-11-21T08:28:08;39.20;;;23.27;;
37355;SDS011;48747;50.250;18.848;2023-11-21T08:30:17;37.45;;;22.10;;
37355;SDS011;48747;50.250;18.848;2023-11-21T08:32:20;35.68;;;22.52;;
37355;SDS011;48747;50.250;18.848;2023-11-21T08:41:06;40.73;;;20.95;;
37355;SDS011;48747;50.250;18.848;2023-11-21T08:43:13;30.10;;;18.67;;
37355;SDS011;48747;50.250;18.848;2023-11-21T08:47:45;32.63;;;18.90;;
37355;SDS011;48747;50.250;18.848;2023-11-21T08:49:40;33.13;;;19.45;;
37355;SDS011;48747;50.250;18.848;2023-11-21T08:51:53;33.55;;;18.40;;
37355;SDS011;48747;50.250;18.848;2023-11-21T08:54:03;29.05;;;17.45;;
37355;SDS011;48747;50.250;18.848;2023-11-21T08:56:10;34.45;;;18.40;;
37355;SDS011;48747;50.250;18.848;2023-11-21T08:58:10;35.10;;;18.75;;
37355;SDS011;48747;50.250;18.848;2023-11-21T09:00:19;31.02;;;16.73;;
37355;SDS011;48747;50.250;18.848;2023-11-21T09:02:26;28.98;;;15.95;;
37355;SDS011;48747;50.250;18.848;2023-11-21T09:06:46;32.25;;;17.45;;
37355;SDS011;48747;50.250;18.848;2023-11-21T09:09:01;27.52;;;14.65;;
37355;SDS011;48747;50.250;18.848;2023-11-21T09:11:06;26.00;;;13.65;;
37355;SDS011;48747;50.250;18.848;2023-11-21T09:13:11;28.00;;;14.53;;
37355;SDS011;48747;50.250;18.848;2023-11-21T09:15:27;22.13;;;12.37;;
37355;SDS011;48747;50.250;18.848;2023-11-21T09:17:28;31.85;;;16.42;;
37355;SDS011;48747;50.250;18.848;2023-11-21T09:19:43;32.60;;;16.57;;
37355;SDS011;48747;50.250;18.848;2023-11-21T09:21:40;16.50;;;10.55;;
37355;SDS011;48747;50.250;18.848;2023-11-21T09:24:01;21.87;;;11.00;;
37355;SDS011;48747;50.250;18.848;2023-11-21T09:26:09;30.95;;;17.32;;
37355;SDS011;48747;50.250;18.848;2023-11-21T09:28:22;26.75;;;14.55;;
37355;SDS011;48747;50.250;18.848;2023-11-21T09:34:29;22.52;;;11.95;;
37355;SDS011;48747;50.250;18.848;2023-11-21T09:36:36;19.25;;;9.60;;
37355;SDS011;48747;50.250;18.848;2023-11-21T09:38:43;19.30;;;9.60;;
37355;SDS011;48747;50.250;18.848;2023-11-21T09:40:52;23.55;;;12.07;;
37355;SDS011;48747;50.250;18.848;2023-11-21T09:45:03;17.45;;;9.53;;
37355;SDS011;48747;50.250;18.848;2023-11-21T09:47:13;15.68;;;8.50;;
37355;SDS011;48747;50.250;18.848;2023-11-21T09:49:21;23.05;;;11.97;;
37355;SDS011;48747;50.250;18.848;2023-11-21T09:53:33;11.90;;;6.90;;
37355;SDS011;48747;50.250;18.848;2023-11-21T09:55:39;11.40;;;7.17;;
37355;SDS011;48747;50.250;18.848;2023-11-21T10:00:00;11.68;;;7.08;;
37355;SDS011;48747;50.250;18.848;2023-11-21T10:02:12;16.05;;;7.72;;
37355;SDS011;48747;50.250;18.848;2023-11-21T10:04:14;16.07;;;8.90;;
37355;SDS011;48747;50.250;18.848;2023-11-21T10:06:22;10.55;;;6.70;;
37355;SDS011;48747;50.250;18.848;2023-11-21T10:08:26;13.65;;;7.67;;
37355;SDS011;48747;50.250;18.848;2023-11-21T10:10:48;12.15;;;7.08;;
37355;SDS011;48747;50.250;18.848;2023-11-21T10:12:42;21.07;;;15.05;;
37355;SDS011;48747;50.250;18.848;2023-11-21T10:19:10;20.27;;;11.57;;
37355;SDS011;48747;50.250;18.848;2023-11-21T10:21:16;22.27;;;13.45;;
37355;SDS011;48747;50.250;18.848;2023-11-21T10:23:46;19.52;;;12.37;;
37355;SDS011;48747;50.250;18.848;2023-11-21T10:25:40;18.92;;;11.48;;
37355;SDS011;48747;50.250;18.848;2023-11-21T10:27:48;18.27;;;10.08;;
37355;SDS011;48747;50.250;18.848;2023-11-21T10:29:44;9.23;;;4.75;;
37355;SDS011;48747;50.250;18.848;2023-11-21T10:31:50;13.43;;;5.30;;
37355;SDS011;48747;50.250;18.848;2023-11-21T10:36:31;10.63;;;4.55;;
37355;SDS011;48747;50.250;18.848;2023-11-21T10:38:33;8.15;;;4.60;;
37355;SDS011;48747;50.250;18.848;2023-11-21T10:40:44;10.90;;;5.35;;
37355;SDS011;48747;50.250;18.848;2023-11-21T10:42:53;12.15;;;4.70;;
37355;SDS011;48747;50.250;18.848;2023-11-21T10:45:00;9.18;;;4.55;;
37355;SDS011;48747;50.250;18.848;2023-11-21T10:47:04;8.73;;;4.72;;
37355;SDS011;48747;50.250;18.848;2023-11-21T10:49:19;8.68;;;4.45;;
37355;SDS011;48747;50.250;18.848;2023-11-21T10:51:32;7.45;;;4.47;;
37355;SDS011;48747;50.250;18.848;2023-11-21T10:53:32;7.28;;;4.17;;
37355;SDS011;48747;50.250;18.848;2023-11-21T10:55:32;7.75;;;4.75;;
37355;SDS011;48747;50.250;18.848;2023-11-21T11:06:53;6.35;;;3.12;;
37355;SDS011;48747;50.250;18.848;2023-11-21T11:11:18;4.47;;;2.70;;
37355;SDS011;48747;50.250;18.848;2023-11-21T11:13:22;6.37;;;2.90;;
37355;SDS011;48747;50.250;18.848;2023-11-21T11:15:45;7.78;;;3.80;;
37355;SDS011;48747;50.250;18.848;2023-11-21T11:18:13;9.28;;;5.08;;
37355;SDS011;48747;50.250;18.848;2023-11-21T11:20:08;8.20;;;4.92;;
37355;SDS011;48747;50.250;18.848;2023-11-21T11:22:20;8.30;;;4.50;;
37355;SDS011;48747;50.250;18.848;2023-11-21T11:24:33;9.08;;;4.62;;
37355;SDS011;48747;50.250;18.848;2023-11-21T11:33:42;7.80;;;3.60;;
37355;SDS011;48747;50.250;18.848;2023-11-21T11:36:04;4.50;;;2.27;;
37355;SDS011;48747;50.250;18.848;2023-11-21T11:38:16;4.05;;;2.20;;
37355;SDS011;48747;50.250;18.848;2023-11-21T11:40:26;6.03;;;2.50;;
37355;SDS011;48747;50.250;18.848;2023-11-21T11:42:43;6.62;;;2.67;;
37355;SDS011;48747;50.250;18.848;2023-11-21T11:46:48;9.13;;;3.90;;
37355;SDS011;48747;50.250;18.848;2023-11-21T11:51:31;6.37;;;3.70;;
37355;SDS011;48747;50.250;18.848;2023-11-21T11:53:36;9.15;;;3.42;;
37355;SDS011;48747;50.250;18.848;2023-11-21T11:55:43;6.17;;;2.90;;
37355;SDS011;48747;50.250;18.848;2023-11-21T11:57:53;6.08;;;2.67;;
37355;SDS011;48747;50.250;18.848;2023-11-21T12:02:17;6.80;;;2.72;;
37355;SDS011;48747;50.250;18.848;2023-11-21T12:04:23;5.10;;;2.52;;
37355;SDS011;48747;50.250;18.848;2023-11-21T12:06:35;8.25;;;3.20;;
37355;SDS011;48747;50.250;18.848;2023-11-21T12:11:00;9.73;;;4.20;;
37355;SDS011;48747;50.250;18.848;2023-11-21T12:13:07;7.00;;;3.50;;
37355;SDS011;48747;50.250;18.848;2023-11-21T12:15:13;7.83;;;3.33;;
37355;SDS011;48747;50.250;18.848;2023-11-21T12:17:16;6.55;;;3.10;;
37355;SDS011;48747;50.250;18.848;2023-11-21T12:19:19;6.60;;;3.30;;
37355;SDS011;48747;50.250;18.848;2023-11-21T12:21:35;7.03;;;2.72;;
37355;SDS011;48747;50.250;18.848;2023-11-21T12:23:36;7.67;;;3.17;;
37355;SDS011;48747;50.250;18.848;2023-11-21T12:25:38;7.75;;;3.70;;
37355;SDS011;48747;50.250;18.848;2023-11-21T12:27:43;9.05;;;3.58;;
37355;SDS011;48747;50.250;18.848;2023-11-21T12:29:49;11.80;;;3.55;;
37355;SDS011;48747;50.250;18.848;2023-11-21T12:31:54;7.35;;;3.08;;
37355;SDS011;48747;50.250;18.848;2023-11-21T12:34:01;7.15;;;3.30;;
37355;SDS011;48747;50.250;18.848;2023-11-21T12:36:08;6.60;;;2.90;;
37355;SDS011;48747;50.250;18.848;2023-11-21T12:38:13;7.80;;;3.10;;
37355;SDS011;48747;50.250;18.848;2023-11-21T12:40:23;9.93;;;5.05;;
37355;SDS011;48747;50.250;18.848;2023-11-21T12:42:24;7.10;;;4.00;;
37355;SDS011;48747;50.250;18.848;2023-11-21T12:44:28;6.05;;;3.10;;
37355;SDS011;48747;50.250;18.848;2023-11-21T12:46:32;7.80;;;2.85;;
37355;SDS011;48747;50.250;18.848;2023-11-21T12:48:39;7.45;;;3.80;;
37355;SDS011;48747;50.250;18.848;2023-11-21T12:50:48;9.18;;;4.10;;
37355;SDS011;48747;50.250;18.848;2023-11-21T12:52:52;12.85;;;7.12;;
37355;SDS011;48747;50.250;18.848;2023-11-21T12:54:56;14.63;;;7.20;;
37355;SDS011;48747;50.250;18.848;2023-11-21T12:57:01;16.32;;;8.00;;
37355;SDS011;48747;50.250;18.848;2023-11-21T12:59:05;16.50;;;7.55;;
37355;SDS011;48747;50.250;18.848;2023-11-21T13:03:18;10.90;;;5.45;;
37355;SDS011;48747;50.250;18.848;2023-11-21T13:05:29;10.95;;;5.08;;
37355;SDS011;48747;50.250;18.848;2023-11-21T13:07:48;7.25;;;4.50;;
37355;SDS011;48747;50.250;18.848;2023-11-21T13:09:53;10.00;;;5.28;;
37355;SDS011;48747;50.250;18.848;2023-11-21T13:14:22;9.68;;;5.10;;
37355;SDS011;48747;50.250;18.848;2023-11-21T13:16:24;12.58;;;5.17;;
37355;SDS011;48747;50.250;18.848;2023-11-21T13:18:35;12.23;;;5.28;;
37355;SDS011;48747;50.250;18.848;2023-11-21T13:20:40;10.18;;;5.85;;
37355;SDS011;48747;50.250;18.848;2023-11-21T13:27:14;11.25;;;6.03;;
37355;SDS011;48747;50.250;18.848;2023-11-21T13:31:30;10.98;;;6.10;;
37355;SDS011;48747;50.250;18.848;2023-11-21T13:33:36;12.33;;;6.00;;
37355;SDS011;48747;50.250;18.848;2023-11-21T13:35:50;13.32;;;7.97;;
37355;SDS011;48747;50.250;18.848;2023-11-21T13:38:07;21.60;;;11.38;;
37355;SDS011;48747;50.250;18.848;2023-11-21T13:40:16;14.98;;;9.30;;
37355;SDS011;48747;50.250;18.848;2023-11-21T14:03:57;19.20;;;11.10;;
37355;SDS011;48747;50.250;18.848;2023-11-21T14:30:02;18.60;;;11.73;;
37355;SDS011;48747;50.250;18.848;2023-11-21T14:39:13;22.93;;;12.93;;
37355;SDS011;48747;50.250;18.848;2023-11-21T15:02:30;86.63;;;55.98;;
37355;SDS011;48747;50.250;18.848;2023-11-21T15:08:50;26.07;;;17.07;;
37355;SDS011;48747;50.250;18.848;2023-11-21T15:10:56;24.02;;;14.73;;
37355;SDS011;48747;50.250;18.848;2023-11-21T15:13:08;29.60;;;16.90;;
37355;SDS011;48747;50.250;18.848;2023-11-21T15:15:11;36.93;;;22.42;;
37355;SDS011;48747;50.250;18.848;2023-11-21T15:17:27;33.67;;;20.75;;
37355;SDS011;48747;50.250;18.848;2023-11-21T15:24:10;30.52;;;19.50;;
37355;SDS011;48747;50.250;18.848;2023-11-21T15:26:15;42.25;;;25.02;;
37355;SDS011;48747;50.250;18.848;2023-11-21T15:28:34;35.92;;;22.13;;
37355;SDS011;48747;50.250;18.848;2023-11-21T15:30:43;42.05;;;25.17;;
37355;SDS011;48747;50.250;18.848;2023-11-21T15:32:59;37.55;;;23.00;;
37355;SDS011;48747;50.250;18.848;2023-11-21T15:34:54;35.88;;;22.82;;
37355;SDS011;48747;50.250;18.848;2023-11-21T15:37:25;33.75;;;20.35;;
37355;SDS011;48747;50.250;18.848;2023-11-21T15:41:26;37.85;;;23.80;;
37355;SDS011;48747;50.250;18.848;2023-11-21T15:48:41;40.70;;;24.57;;
37355;SDS011;48747;50.250;18.848;2023-11-21T15:55:20;53.10;;;30.27;;
37355;SDS011;48747;50.250;18.848;2023-11-21T16:01:37;50.40;;;33.13;;
37355;SDS011;48747;50.250;18.848;2023-11-21T16:04:08;53.65;;;33.80;;
37355;SDS011;48747;50.250;18.848;2023-11-21T16:05:56;52.23;;;34.15;;
37355;SDS011;48747;50.250;18.848;2023-11-21T16:08:18;47.73;;;31.42;;
37355;SDS011;48747;50.250;18.848;2023-11-21T16:10:29;47.78;;;30.55;;